Time;durP1;ratioP1;P1;durP2;ratioP2;P2;SDS_P1;SDS_P2;PMS_P1;PMS_P2;Temp;Humidity;BMP_temperature;BMP_pressure;BME280_temperature;BME280_humidity;BME280_pressure;Samples;Min_cycle;Max_cycle;Signal;HPM_P1;HPM_P2
2023/06/06 00:07:40;;;;;;;4.40;3.75;;;;;;;20.37;56.09;101912.44;20966365;28;20040;-71
2023/06/06 00:17:44;;;;;;;3.17;2.88;;;;;;;20.37;56.04;101912.44;20976452;28;20058;-70
2023/06/06 00:27:47;;;;;;;3.75;3.35;;;;;;;20.35;55.94;101901.75;20960073;28;20040;-70
2023/06/06 00:37:49;;;;;;;3.67;3.38;;;;;;;20.32;55.68;101896.59;20960158;28;20566;-70
2023/06/06 00:47:50;;;;;;;4.55;3.90;;;;;;;20.28;55.84;101892.41;20969481;28;20508;-70
2023/06/06 00:57:52;;;;;;;4.30;3.90;;;;;;;20.31;55.68;101902.13;20963993;28;20044;-70
2023/06/06 01:07:54;;;;;;;3.78;3.40;;;;;;;20.29;55.77;101891.44;20933524;28;20099;-70
2023/06/06 01:17:56;;;;;;;3.95;3.47;;;;;;;20.28;55.68;101876.19;20964957;28;20174;-70
2023/06/06 01:27:58;;;;;;;3.50;3.03;;;;;;;20.28;55.90;101879.78;20939374;28;20081;-71
2023/06/06 01:38:07;;;;;;;2.97;2.70;;;;;;;20.20;55.97;101867.88;20942677;28;20064;-70
2023/06/06 01:48:09;;;;;;;2.80;2.60;;;;;;;20.22;55.83;101888.41;20949172;28;20084;-70
2023/06/06 01:58:10;;;;;;;2.47;2.28;;;;;;;20.20;55.88;101884.09;20961964;28;20059;-70
2023/06/06 02:08:12;;;;;;;3.05;2.70;;;;;;;20.01;55.72;101864.00;20943809;28;20041;-71
2023/06/06 02:18:14;;;;;;;3.38;2.55;;;;;;;20.14;55.53;101882.78;20962214;28;20094;-70
2023/06/06 02:28:16;;;;;;;2.85;2.35;;;;;;;20.12;55.67;101882.91;20964847;28;20049;-70
2023/06/06 02:38:18;;;;;;;2.75;2.13;;;;;;;20.11;55.64;101878.47;20938313;28;20050;-70
2023/06/06 02:48:20;;;;;;;2.42;1.90;;;;;;;20.09;55.48;101880.44;20965562;28;20057;-70
2023/06/06 02:58:29;;;;;;;2.38;2.15;;;;;;;20.07;55.51;101871.59;20964172;28;20098;-70
2023/06/06 03:08:31;;;;;;;2.65;2.00;;;;;;;20.05;55.38;101876.28;20948690;28;20048;-70
2023/06/06 03:18:36;;;;;;;3.05;2.25;;;;;;;20.05;55.45;101875.41;20940306;28;20037;-70
2023/06/06 03:28:42;;;;;;;2.33;2.13;;;;;;;20.02;55.07;101881.94;20933002;28;20505;-70
2023/06/06 03:38:47;;;;;;;;;;;;;;;20.00;55.17;101884.75;20942301;28;20048;-70
2023/06/06 03:48:49;;;;;;;2.65;1.70;;;;;;;19.98;55.26;101885.88;20942971;28;19952;-70
2023/06/06 03:58:51;;;;;;;2.22;1.90;;;;;;;19.97;55.27;101879.59;20911698;28;20074;-70
2023/06/06 04:08:52;;;;;;;2.00;1.80;;;;;;;19.95;55.24;101881.56;20948674;28;20136;-70
2023/06/06 04:18:54;;;;;;;2.00;1.80;;;;;;;19.95;55.59;101880.75;20974973;28;20052;-70
2023/06/06 04:28:58;;;;;;;2.60;2.05;;;;;;;19.96;55.60;101877.03;20927612;28;20107;-70
2023/06/06 04:39:00;;;;;;;;;;;;;;;19.98;55.59;101884.03;20941897;28;20072;-71
2023/06/06 04:49:03;;;;;;;2.67;2.08;;;;;;;19.95;55.86;101883.44;20937193;28;19920;-71
2023/06/06 04:59:09;;;;;;;3.55;2.00;;;;;;;19.97;57.37;101882.31;20931176;28;20048;-71
2023/06/06 05:09:11;;;;;;;3.63;2.00;;;;;;;19.99;57.22;101883.03;20922620;28;20048;-70
2023/06/06 05:19:15;;;;;;;2.50;2.00;;;;;;;20.00;57.34;101883.91;20952867;28;20591;-71
2023/06/06 05:29:16;;;;;;;3.03;1.98;;;;;;;20.01;57.44;101885.63;20962588;28;20044;-71
2023/06/06 05:39:19;;;;;;;2.40;1.90;;;;;;;19.99;57.65;101883.03;20964359;28;20080;-70
2023/06/06 05:49:22;;;;;;;2.55;1.90;;;;;;;20.02;57.94;101889.19;20941612;28;20137;-71
2023/06/06 05:59:23;;;;;;;2.00;1.67;;;;;;;20.04;58.16;101890.78;20910056;28;20044;-71
2023/06/06 06:09:25;;;;;;;2.20;1.92;;;;;;;20.04;58.55;101896.19;20884473;28;20044;-69
2023/06/06 06:19:27;;;;;;;1.77;1.35;;;;;;;19.99;59.15;101883.03;20908226;28;20133;-69
2023/06/06 06:29:28;;;;;;;1.80;1.50;;;;;;;20.11;59.85;101899.25;20904625;28;20037;-72
2023/06/06 06:39:30;;;;;;;2.63;1.50;;;;;;;20.16;60.06;101890.75;20914124;28;20049;-72
2023/06/06 06:49:32;;;;;;;2.10;1.50;;;;;;;20.21;60.48;101899.34;20890832;28;20051;-74
2023/06/06 06:59:33;;;;;;;2.60;1.63;;;;;;;20.27;60.63;101896.13;20915137;28;20134;-74
2023/06/06 07:09:35;;;;;;;2.85;1.67;;;;;;;20.34;60.65;101905.47;20904104;28;20658;-72
2023/06/06 07:19:36;;;;;;;3.15;1.50;;;;;;;20.38;60.62;101906.03;20912981;28;20126;-73
2023/06/06 07:29:38;;;;;;;2.28;1.50;;;;;;;20.46;60.49;101894.59;20922700;28;20055;-72
2023/06/06 07:39:40;;;;;;;2.17;1.52;;;;;;;20.53;60.43;101893.06;20935380;28;20051;-72
2023/06/06 07:49:43;;;;;;;2.85;2.22;;;;;;;20.64;60.20;101898.44;20952562;28;20048;-73
2023/06/06 07:59:45;;;;;;;3.05;1.90;;;;;;;20.78;59.89;101893.72;20927555;28;20087;-73
2023/06/06 08:09:46;;;;;;;3.80;2.33;;;;;;;21.19;59.77;101880.31;20913714;28;20056;-73
2023/06/06 08:19:48;;;;;;;3.33;2.20;;;;;;;22.97;55.42;101902.19;20907318;28;20689;-71
2023/06/06 08:29:50;;;;;;;6.13;2.33;;;;;;;23.70;53.72;101875.38;20916700;28;20049;-73
2023/06/06 08:39:51;;;;;;;4.50;1.70;;;;;;;24.69;51.33;101894.59;20927398;28;20478;-73
2023/06/06 08:49:53;;;;;;;5.40;2.03;;;;;;;25.31;49.77;101894.53;20935495;28;20048;-75
2023/06/06 08:59:55;;;;;;;4.57;2.50;;;;;;;24.87;50.29;101900.88;20902503;28;20052;-74
2023/06/06 09:09:57;;;;;;;5.05;2.85;;;;;;;23.93;52.33;101894.00;20902495;28;20053;-75
2023/06/06 09:19:58;;;;;;;2.90;1.98;;;;;;;23.29;53.63;101886.59;20888471;28;20471;-76
2023/06/06 09:30:00;;;;;;;2.70;1.80;;;;;;;22.98;54.60;101889.50;20919137;28;20458;-75
2023/06/06 09:40:12;;;;;;;2.58;2.10;;;;;;;22.77;55.43;101873.38;20924186;28;20045;-75
2023/06/06 09:50:15;;;;;;;2.50;1.80;;;;;;;22.66;55.89;101883.41;20895380;28;20698;-76
2023/06/06 10:00:18;;;;;;;2.47;1.73;;;;;;;22.55;56.10;101867.28;20924184;28;20484;-76
2023/06/06 10:10:20;;;;;;;4.78;2.08;;;;;;;22.54;56.45;101879.13;20947953;28;20076;-76
2023/06/06 10:20:22;;;;;;;3.40;2.35;;;;;;;22.49;56.86;101865.13;20944606;28;20052;-76
2023/06/06 10:30:33;;;;;;;2.85;2.03;;;;;;;22.50;57.13;101864.13;20937973;28;20037;-76
2023/06/06 10:40:58;;;;;;;2.40;1.90;;;;;;;22.46;57.20;101869.00;20911638;28;20075;-76
2023/06/06 10:50:59;;;;;;;;;;;;;;;22.42;57.41;101862.94;20924859;28;20145;-76
2023/06/06 11:01:05;;;;;;;2.42;1.75;;;;;;;22.27;57.51;101845.41;20940638;28;19959;-76
2023/06/06 11:11:19;;;;;;;2.50;1.85;;;;;;;22.37;57.52;101858.97;20941254;28;20128;-77
2023/06/06 11:21:23;;;;;;;2.35;2.10;;;;;;;22.36;57.70;101863.53;20912402;28;20044;-79
2023/06/06 11:31:26;;;;;;;3.07;2.30;;;;;;;22.34;57.43;101851.13;20919909;28;20138;-75
2023/06/06 11:41:29;;;;;;;2.70;1.95;;;;;;;22.35;57.72;101850.97;20922061;28;20590;-75
2023/06/06 11:51:31;;;;;;;2.60;2.22;;;;;;;22.35;57.81;101850.13;20935429;28;20064;-75
2023/06/06 12:01:33;;;;;;;2.72;2.25;;;;;;;22.28;57.96;101837.09;20917571;28;20079;-76
2023/06/06 12:11:34;;;;;;;2.38;2.00;;;;;;;22.27;57.87;101842.69;20926828;28;20128;-76
2023/06/06 12:21:43;;;;;;;2.97;2.45;;;;;;;22.31;58.18;101844.09;20924494;28;20048;-75
2023/06/06 12:31:49;;;;;;;2.88;2.10;;;;;;;22.30;58.09;101842.41;20948578;28;20044;-75
2023/06/06 12:41:50;;;;;;;4.68;2.72;;;;;;;22.30;58.40;101847.81;20925314;28;20449;-76
2023/06/06 12:51:52;;;;;;;3.45;2.60;;;;;;;22.29;58.34;101852.38;20901905;28;20049;-77
2023/06/06 13:01:54;;;;;;;2.20;1.92;;;;;;;22.23;58.85;101838.53;20929725;28;20049;-74
2023/06/06 13:11:55;;;;;;;3.10;2.10;;;;;;;22.27;59.17;101843.53;20915363;28;20115;-77
2023/06/06 13:21:57;;;;;;;2.38;2.13;;;;;;;22.26;59.34;101835.53;20942163;28;20091;-74
2023/06/06 13:31:59;;;;;;;3.35;2.08;;;;;;;22.08;59.00;101800.97;20926142;28;20571;-77
2023/06/06 13:42:01;;;;;;;2.42;2.22;;;;;;;22.21;58.82;101814.25;20920609;28;20057;-77
2023/06/06 13:52:03;;;;;;;6.80;2.63;;;;;;;22.24;58.91;101829.41;20922547;28;20049;-78
2023/06/06 14:02:05;;;;;;;5.50;2.78;;;;;;;22.24;58.71;101837.53;20869273;28;20055;-76
2023/06/06 14:12:08;;;;;;;4.05;2.72;;;;;;;22.22;59.61;101824.13;20879257;28;20536;-79
2023/06/06 14:32:12;;;;;;;5.22;2.42;;;;;;;22.06;59.86;101808.41;20896583;28;20139;-79
2023/06/06 14:42:14;;;;;;;8.63;3.20;;;;;;;21.93;61.58;101791.56;20909830;28;20059;-84
2023/06/06 14:52:16;;;;;;;5.38;3.10;;;;;;;22.10;61.83;101822.56;20948338;28;20106;-83
2023/06/06 15:02:18;;;;;;;9.70;3.22;;;;;;;22.09;61.59;101824.38;20968368;28;20457;-79
2023/06/06 15:12:20;;;;;;;7.55;3.03;;;;;;;22.09;61.40;101829.81;20944401;28;20045;-84
2023/06/06 15:22:23;;;;;;;5.55;2.83;;;;;;;22.05;61.15;101809.41;20938695;28;20107;-71
2023/06/06 15:32:25;;;;;;;3.92;2.40;;;;;;;22.09;61.81;101826.25;20896689;28;20420;-69
2023/06/06 15:42:26;;;;;;;11.73;4.97;;;;;;;22.06;63.38;101819.25;20929651;28;20178;-65
2023/06/06 15:52:28;;;;;;;13.75;5.55;;;;;;;22.06;64.73;101815.69;20908183;28;20436;-67
2023/06/06 16:02:30;;;;;;;10.27;4.03;;;;;;;22.11;64.43;101818.84;20927668;28;20045;-68
2023/06/06 16:12:32;;;;;;;10.60;3.60;;;;;;;22.13;63.60;101798.72;20899190;28;20053;-68
2023/06/06 16:22:34;;;;;;;7.32;3.33;;;;;;;21.97;63.35;101777.59;20896973;28;20059;-71
2023/06/06 16:32:35;;;;;;;6.30;3.47;;;;;;;22.06;63.37;101797.56;20921115;28;20044;-70
2023/06/06 16:42:41;;;;;;;6.40;3.25;;;;;;;22.01;63.43;101803.44;20901489;28;20131;-70
2023/06/06 16:52:42;;;;;;;5.72;2.90;;;;;;;21.93;63.87;101794.28;20901768;28;20053;-70
2023/06/06 17:02:47;;;;;;;5.50;3.17;;;;;;;21.88;63.26;101795.56;20918356;28;20500;-70
2023/06/06 17:12:50;;;;;;;6.22;2.60;;;;;;;21.85;62.97;101808.53;20928591;28;20052;-70
2023/06/06 17:22:52;;;;;;;5.32;2.67;;;;;;;21.82;62.85;101801.56;20910400;28;20084;-70
2023/06/06 17:32:54;;;;;;;3.38;2.40;;;;;;;21.81;62.25;101804.38;20933189;28;20060;-71
2023/06/06 17:42:56;;;;;;;5.35;2.33;;;;;;;21.79;62.16;101807.25;20943144;28;20048;-70
2023/06/06 17:52:58;;;;;;;4.45;2.83;;;;;;;21.75;61.79;101810.38;20918905;28;20045;-70
2023/06/06 18:03:00;;;;;;;4.45;2.78;;;;;;;21.67;61.22;101821.94;20945978;28;20041;-70
2023/06/06 18:13:03;;;;;;;4.50;2.67;;;;;;;21.61;61.24;101835.97;20930193;28;20619;-70
2023/06/06 18:23:05;;;;;;;6.20;2.97;;;;;;;21.54;60.88;101828.41;21082024;28;20684;-70
2023/06/06 18:33:07;;;;;;;3.65;2.75;;;;;;;21.50;60.67;101826.13;21080906;28;20058;-70
2023/06/06 18:43:09;;;;;;;6.00;3.60;;;;;;;21.47;60.47;101832.66;21080463;28;20474;-70
2023/06/06 18:53:11;;;;;;;4.68;3.22;;;;;;;21.39;60.42;101827.09;21079770;28;20052;-70
2023/06/06 19:03:13;;;;;;;6.13;4.18;;;;;;;21.44;63.21;101860.03;21060877;28;20056;-70
2023/06/06 19:13:15;;;;;;;5.75;3.72;;;;;;;21.43;63.50;101863.75;21048170;28;20055;-70
2023/06/06 19:23:16;;;;;;;5.07;3.70;;;;;;;21.40;63.01;101867.56;21077042;28;20571;-70
2023/06/06 19:33:18;;;;;;;5.43;3.35;;;;;;;21.38;62.73;101866.00;21075570;28;20135;-70
2023/06/06 19:43:20;;;;;;;6.97;3.45;;;;;;;21.35;62.68;101871.69;21073509;28;20109;-70
2023/06/06 19:53:21;;;;;;;5.03;3.03;;;;;;;21.17;61.96;101861.47;21075390;28;20106;-70
2023/06/06 20:03:28;;;;;;;4.57;3.13;;;;;;;21.28;61.95;101910.16;20987465;28;20052;-71
2023/06/06 20:13:30;;;;;;;4.47;3.10;;;;;;;21.23;61.51;101898.88;21007085;28;20042;-71
2023/06/06 20:23:32;;;;;;;4.88;2.90;;;;;;;21.21;61.29;101898.16;20970529;28;20049;-71
2023/06/06 20:33:34;;;;;;;5.97;3.10;;;;;;;21.20;61.02;101906.38;20973340;28;20044;-71
2023/06/06 20:43:36;;;;;;;3.83;2.88;;;;;;;21.16;60.88;101903.06;21039342;28;20104;-71
2023/06/06 20:53:38;;;;;;;4.13;2.50;;;;;;;21.13;60.59;101904.22;20954777;28;20114;-71
2023/06/06 21:03:44;;;;;;;3.95;2.80;;;;;;;21.11;60.47;101905.34;20912922;28;20048;-71
2023/06/06 21:13:47;;;;;;;4.15;2.20;;;;;;;21.03;60.17;101895.19;20925358;28;20131;-71
2023/06/06 21:23:48;;;;;;;3.38;2.20;;;;;;;21.04;59.90;101894.19;20931044;28;20049;-71
2023/06/06 21:33:50;;;;;;;4.00;2.50;;;;;;;21.01;59.63;101898.00;20950041;28;20052;-71
2023/06/06 21:43:51;;;;;;;2.80;2.08;;;;;;;20.98;59.54;101892.88;20972425;28;20782;-71
2023/06/06 21:53:53;;;;;;;4.30;3.00;;;;;;;20.94;58.93;101899.53;20959767;28;20052;-70
2023/06/06 22:03:55;;;;;;;3.70;2.50;;;;;;;20.92;58.67;101900.66;20966516;28;20119;-70
2023/06/06 22:13:57;;;;;;;4.53;2.83;;;;;;;20.88;58.68;101897.38;20973014;28;20105;-71
2023/06/06 22:23:58;;;;;;;3.05;2.30;;;;;;;20.87;58.42;101914.59;20961606;28;20114;-71
2023/06/06 22:34:00;;;;;;;3.53;2.30;;;;;;;20.85;58.23;101905.75;20976791;28;20049;-71
2023/06/06 22:44:02;;;;;;;4.38;2.05;;;;;;;20.83;57.90;101911.28;20972586;28;20048;-71
2023/06/06 22:54:04;;;;;;;2.53;2.30;;;;;;;20.82;57.70;101909.56;20947245;28;20087;-71
2023/06/06 23:04:06;;;;;;;3.17;2.20;;;;;;;20.80;57.61;101891.75;20965591;28;20128;-71
2023/06/06 23:14:08;;;;;;;3.45;2.20;;;;;;;20.78;57.47;101888.28;20962679;28;20060;-71
2023/06/06 23:24:09;;;;;;;4.10;2.30;;;;;;;20.75;57.45;101886.69;20961788;28;20051;-71
2023/06/06 23:34:11;;;;;;;3.47;2.35;;;;;;;20.76;57.22;101879.41;20986470;28;20052;-71
2023/06/06 23:44:13;;;;;;;2.78;1.88;;;;;;;20.69;57.09;101863.72;20970661;28;20060;-70
2023/06/06 23:54:14;;;;;;;2.15;1.90;;;;;;;20.72;57.10;101870.72;20989437;28;20053;-70
